Time;durP1;ratioP1;P1;durP2;ratioP2;P2;SDS_P1;SDS_P2;PMS_P1;PMS_P2;Temp;Humidity;BMP_temperature;BMP_pressure;BME280_temperature;BME280_humidity;BME280_pressure;Samples;Min_cycle;Max_cycle;Signal;HPM_P1;HPM_P2
2022/10/30 00:01:06;;;;;;;20.40;3.22;;;13.00;99.90;;;;;;5010775;28;20061;-64
2022/10/30 00:03:34;;;;;;;19.05;3.35;;;13.00;99.90;;;;;;5014914;28;20045;-67
2022/10/30 00:06:05;;;;;;;27.60;3.72;;;13.00;99.90;;;;;;5025784;28;20052;-63
2022/10/30 00:08:33;;;;;;;14.70;3.30;;;12.90;99.90;;;;;;5026045;28;20056;-60
2022/10/30 00:11:09;;;;;;;22.23;3.55;;;12.90;99.90;;;;;;5013362;28;20044;-62
2022/10/30 00:13:37;;;;;;;21.83;2.97;;;12.80;99.90;;;;;;5012270;28;20042;-60
2022/10/30 00:16:07;;;;;;;17.30;3.15;;;12.70;99.90;;;;;;5011468;28;20050;-64
2022/10/30 00:18:36;;;;;;;;;;;12.60;99.90;;;;;;5007718;28;20053;-62
2022/10/30 00:21:11;;;;;;;21.02;2.97;;;12.50;99.90;;;;;;5017543;28;19925;-64
2022/10/30 00:23:44;;;;;;;22.50;3.67;;;12.50;99.90;;;;;;5023370;28;20045;-65
2022/10/30 00:26:12;;;;;;;20.40;2.58;;;12.50;99.90;;;;;;5007820;28;20049;-64
2022/10/30 00:28:40;;;;;;;26.15;3.55;;;12.40;99.90;;;;;;5014485;28;20060;-60
2022/10/30 00:31:10;;;;;;;;;;;12.40;99.90;;;;;;5005911;28;20046;-60
2022/10/30 00:33:37;;;;;;;21.95;3.63;;;12.30;99.90;;;;;;5015517;28;20361;-63
2022/10/30 00:36:05;;;;;;;25.77;3.22;;;12.30;99.90;;;;;;5020687;28;20064;-62
2022/10/30 00:38:34;;;;;;;19.10;2.95;;;12.20;99.90;;;;;;5018624;28;20061;-59
2022/10/30 00:41:02;;;;;;;15.88;3.03;;;12.20;99.90;;;;;;5022421;28;20060;-65
2022/10/30 00:43:39;;;;;;;17.33;2.78;;;12.20;99.90;;;;;;5016493;28;20045;-64
2022/10/30 00:46:16;;;;;;;18.50;2.90;;;12.20;99.90;;;;;;5009549;28;20044;-60
2022/10/30 00:48:49;;;;;;;22.75;3.13;;;12.10;99.90;;;;;;5006815;28;20046;-65
2022/10/30 00:51:18;;;;;;;21.92;3.20;;;12.10;99.90;;;;;;5008050;28;20045;-65
2022/10/30 00:53:47;;;;;;;33.30;4.53;;;12.00;99.90;;;;;;5013655;28;20049;-61
2022/10/30 00:56:18;;;;;;;25.33;3.42;;;12.00;99.90;;;;;;5008037;28;20401;-67
2022/10/30 00:58:54;;;;;;;26.67;3.20;;;12.00;99.90;;;;;;5014749;28;20053;-62
2022/10/30 01:01:25;;;;;;;27.23;2.97;;;11.90;99.90;;;;;;5017532;28;20514;-63
2022/10/30 01:03:56;;;;;;;25.23;3.03;;;11.90;99.90;;;;;;5014806;28;20057;-64
2022/10/30 01:06:25;;;;;;;28.27;3.15;;;11.90;99.90;;;;;;5006273;28;20045;-67
2022/10/30 01:08:54;;;;;;;32.83;4.15;;;11.90;99.90;;;;;;5020915;28;20056;-64
2022/10/30 01:11:27;;;;;;;29.83;4.10;;;11.90;99.90;;;;;;5010484;28;20057;-61
2022/10/30 01:13:58;;;;;;;22.88;2.80;;;11.90;99.90;;;;;;5026867;28;20397;-61
2022/10/30 01:16:35;;;;;;;25.23;3.28;;;11.80;99.90;;;;;;5005295;28;20049;-66
2022/10/30 01:19:33;;;;;;;23.85;3.20;;;11.80;99.90;;;;;;5022963;28;20052;-64
2022/10/30 01:22:22;;;;;;;17.50;2.00;;;11.80;99.90;;;;;;5025214;28;20045;-62
2022/10/30 01:25:03;;;;;;;24.55;2.70;;;11.80;99.90;;;;;;5022755;28;20045;-60
2022/10/30 01:27:51;;;;;;;24.35;3.08;;;11.80;99.90;;;;;;4997533;28;20486;-60
2022/10/30 01:30:57;;;;;;;24.17;4.13;;;11.80;99.90;;;;;;5024766;28;20041;-60
2022/10/30 01:33:42;;;;;;;30.13;4.35;;;11.80;99.90;;;;;;4997914;28;20489;-64
2022/10/30 01:36:43;;;;;;;24.50;3.38;;;11.70;99.90;;;;;;5019110;28;20057;-68
2022/10/30 01:39:15;;;;;;;28.17;3.50;;;11.80;99.90;;;;;;5033338;28;20049;-64
2022/10/30 01:41:43;;;;;;;29.88;3.33;;;11.70;99.90;;;;;;5031491;28;20488;-61
2022/10/30 01:44:17;;;;;;;19.23;2.55;;;11.70;99.90;;;;;;5028564;28;20486;-63
2022/10/30 01:47:03;;;;;;;24.58;3.13;;;11.70;99.90;;;;;;5021001;28;20061;-62
2022/10/30 01:49:39;;;;;;;27.90;3.65;;;11.70;99.90;;;;;;5027594;28;20049;-64
2022/10/30 01:52:40;;;;;;;22.98;2.53;;;11.70;99.90;;;;;;5013768;28;20394;-59
2022/10/30 01:55:08;;;;;;;24.17;3.08;;;11.60;99.90;;;;;;5017525;28;20042;-59
2022/10/30 01:57:56;;;;;;;31.35;4.40;;;11.60;99.90;;;;;;5021054;28;20528;-59
2022/10/30 02:00:23;;;;;;;30.88;3.38;;;11.60;99.90;;;;;;5018442;28;20045;-60
2022/10/30 02:02:51;;;;;;;26.48;3.22;;;11.60;99.90;;;;;;5011988;28;20064;-62
2022/10/30 02:05:35;;;;;;;30.58;4.47;;;11.60;99.90;;;;;;5022673;28;20052;-61
2022/10/30 02:08:03;;;;;;;34.28;5.43;;;11.60;99.90;;;;;;5027702;28;20033;-62
2022/10/30 02:10:35;;;;;;;28.85;3.65;;;11.50;99.90;;;;;;5030472;28;20056;-61
2022/10/30 02:13:03;;;;;;;22.77;3.00;;;11.50;99.90;;;;;;5030095;28;20501;-62
2022/10/30 02:15:31;;;;;;;35.05;3.15;;;11.50;99.90;;;;;;5027730;28;20056;-63
2022/10/30 02:17:59;;;;;;;24.27;2.97;;;11.50;99.90;;;;;;5018656;28;20038;-65
2022/10/30 02:20:29;;;;;;;23.55;3.38;;;11.50;99.90;;;;;;5010133;28;20038;-62
2022/10/30 02:22:58;;;;;;;29.70;4.07;;;11.50;99.90;;;;;;5013750;28;20041;-61
2022/10/30 02:25:31;;;;;;;21.65;2.92;;;11.50;99.90;;;;;;5015081;28;20053;-62
2022/10/30 02:27:59;;;;;;;22.25;3.63;;;11.50;99.90;;;;;;5016314;28;20054;-65
2022/10/30 02:30:29;;;;;;;22.00;2.63;;;11.50;99.90;;;;;;5026649;28;20485;-68
2022/10/30 02:32:57;;;;;;;24.85;2.35;;;11.50;99.90;;;;;;5029557;28;20042;-62
2022/10/30 02:35:25;;;;;;;19.45;2.47;;;11.60;99.90;;;;;;5033107;28;20053;-61
2022/10/30 02:37:53;;;;;;;31.35;3.63;;;11.50;99.90;;;;;;5026929;28;20045;-61
2022/10/30 02:40:20;;;;;;;22.95;2.97;;;11.50;99.90;;;;;;5033085;28;20398;-61
2022/10/30 02:42:54;;;;;;;29.00;4.45;;;11.50;99.90;;;;;;5012744;28;20052;-62
2022/10/30 02:45:22;;;;;;;21.80;2.50;;;11.50;99.90;;;;;;5014319;28;20046;-70
2022/10/30 02:47:50;;;;;;;20.85;3.20;;;11.50;99.90;;;;;;5022340;28;20053;-61
2022/10/30 02:50:18;;;;;;;27.73;3.97;;;11.50;99.90;;;;;;5032348;28;20400;-62
2022/10/30 02:52:45;;;;;;;23.25;3.28;;;11.50;99.90;;;;;;5030347;28;20050;-62
2022/10/30 02:55:13;;;;;;;31.63;3.75;;;11.60;99.90;;;;;;5018481;28;20037;-61
2022/10/30 02:57:41;;;;;;;24.02;3.17;;;11.60;99.90;;;;;;5019519;28;20422;-61
2022/10/30 03:00:10;;;;;;;26.42;3.08;;;11.60;99.90;;;;;;5012884;28;20057;-61
2022/10/30 03:02:38;;;;;;;26.20;2.72;;;11.60;99.90;;;;;;5012818;28;20398;-62
2022/10/30 03:05:06;;;;;;;26.80;4.53;;;11.60;99.90;;;;;;5012479;28;20045;-61
2022/10/30 03:07:33;;;;;;;37.75;3.55;;;11.60;99.90;;;;;;5015326;28;20400;-60
2022/10/30 03:10:01;;;;;;;16.85;2.60;;;11.50;99.90;;;;;;5013830;28;20050;-62
2022/10/30 03:12:30;;;;;;;23.65;2.58;;;11.50;99.90;;;;;;5011988;28;20054;-61
2022/10/30 03:14:57;;;;;;;22.80;2.45;;;11.60;99.90;;;;;;5026777;28;20057;-60
2022/10/30 03:17:26;;;;;;;27.08;4.28;;;11.60;99.90;;;;;;5011761;28;20477;-61
2022/10/30 03:19:54;;;;;;;22.13;2.80;;;11.60;99.90;;;;;;5014051;28;20050;-61
2022/10/30 03:22:21;;;;;;;24.50;3.95;;;11.50;99.90;;;;;;5013144;28;20050;-61
2022/10/30 03:24:49;;;;;;;33.35;4.88;;;11.50;99.90;;;;;;5030411;28;20523;-60
2022/10/30 03:27:17;;;;;;;20.73;2.40;;;11.60;99.90;;;;;;5033469;28;20049;-61
2022/10/30 03:29:44;;;;;;;21.73;2.97;;;11.60;99.90;;;;;;5033358;28;20057;-61
2022/10/30 03:32:12;;;;;;;18.70;2.70;;;11.60;99.90;;;;;;5033127;28;20053;-61
2022/10/30 03:34:46;;;;;;;33.40;4.22;;;11.60;99.90;;;;;;5031956;28;20041;-61
2022/10/30 03:37:14;;;;;;;30.30;2.63;;;11.50;99.90;;;;;;5015208;28;20417;-61
2022/10/30 03:39:41;;;;;;;18.50;2.42;;;11.50;99.90;;;;;;5032122;28;20049;-61
2022/10/30 03:42:09;;;;;;;24.00;2.60;;;11.50;99.90;;;;;;5031864;28;20135;-62
2022/10/30 03:44:36;;;;;;;22.52;2.35;;;11.60;99.90;;;;;;5031661;28;20049;-61
2022/10/30 03:47:04;;;;;;;18.35;2.50;;;11.60;99.90;;;;;;5031723;28;20061;-61
2022/10/30 03:49:37;;;;;;;26.27;3.53;;;11.60;99.90;;;;;;5031844;28;20041;-61
2022/10/30 03:52:09;;;;;;;25.92;3.50;;;11.60;99.90;;;;;;5031521;28;20057;-70
2022/10/30 03:54:37;;;;;;;24.02;3.38;;;11.60;99.90;;;;;;5032939;28;20061;-63
2022/10/30 03:57:05;;;;;;;20.58;2.38;;;11.60;99.90;;;;;;5031203;28;20046;-63
2022/10/30 03:59:56;;;;;;;21.88;4.28;;;11.60;99.90;;;;;;5031573;28;20045;-65
2022/10/30 04:02:52;;;;;;;17.55;2.53;;;11.60;99.90;;;;;;5031226;28;20056;-66
2022/10/30 04:05:22;;;;;;;27.25;3.03;;;11.60;99.90;;;;;;5031580;28;20405;-62
2022/10/30 04:08:02;;;;;;;22.25;3.08;;;11.60;99.90;;;;;;5031758;28;20044;-67
2022/10/30 04:10:34;;;;;;;33.33;3.22;;;11.60;99.90;;;;;;5032317;28;20045;-67
2022/10/30 04:13:07;;;;;;;28.33;2.70;;;11.60;99.90;;;;;;5031701;28;20677;-61
2022/10/30 04:15:39;;;;;;;20.77;2.53;;;11.60;99.90;;;;;;5031041;28;20041;-60
2022/10/30 04:18:10;;;;;;;21.90;2.40;;;11.60;99.90;;;;;;5032436;28;20048;-61
2022/10/30 04:20:38;;;;;;;24.60;2.60;;;11.70;99.90;;;;;;5030935;28;20064;-60
2022/10/30 04:23:09;;;;;;;23.08;3.47;;;11.70;99.90;;;;;;5031019;28;20528;-60
2022/10/30 04:25:37;;;;;;;24.25;2.38;;;11.60;99.90;;;;;;5031177;28;20056;-61
2022/10/30 04:28:05;;;;;;;17.85;3.20;;;11.70;99.90;;;;;;5032227;28;20049;-60
2022/10/30 04:30:34;;;;;;;20.83;2.50;;;11.60;99.90;;;;;;5032138;28;20513;-60
2022/10/30 04:33:06;;;;;;;23.98;2.95;;;11.60;99.90;;;;;;5030853;28;20041;-64
2022/10/30 04:35:35;;;;;;;18.20;2.10;;;11.60;99.90;;;;;;5030954;28;20516;-60
2022/10/30 04:38:13;;;;;;;21.42;2.10;;;11.60;99.90;;;;;;5030936;28;20512;-61
2022/10/30 04:40:43;;;;;;;18.92;3.85;;;11.60;99.90;;;;;;5030825;28;20048;-61
2022/10/30 04:43:12;;;;;;;27.52;2.80;;;11.60;99.90;;;;;;5014824;28;20045;-61
2022/10/30 04:45:41;;;;;;;25.88;3.30;;;11.60;99.90;;;;;;5031512;28;20045;-61
2022/10/30 04:48:14;;;;;;;25.90;2.42;;;11.60;99.90;;;;;;5030826;28;20511;-60
2022/10/30 04:50:43;;;;;;;20.88;1.92;;;11.60;99.90;;;;;;5030574;28;20048;-60
2022/10/30 04:53:18;;;;;;;24.42;3.10;;;11.60;99.90;;;;;;5030639;28;20400;-60
2022/10/30 04:55:53;;;;;;;29.17;3.13;;;11.50;99.90;;;;;;5030598;28;20042;-63
2022/10/30 04:58:21;;;;;;;24.27;3.63;;;11.50;99.90;;;;;;5030126;28;20048;-61
2022/10/30 05:01:06;;;;;;;20.05;2.15;;;11.60;99.90;;;;;;5015282;28;20042;-60
2022/10/30 05:03:36;;;;;;;16.67;2.60;;;11.60;99.90;;;;;;5030498;28;20397;-60
2022/10/30 05:06:25;;;;;;;20.30;2.45;;;11.70;99.90;;;;;;5030249;28;20037;-66
2022/10/30 05:08:54;;;;;;;19.10;3.80;;;11.70;99.90;;;;;;5029840;28;20042;-67
2022/10/30 05:11:29;;;;;;;18.27;1.98;;;11.80;99.90;;;;;;5030196;28;20045;-64
2022/10/30 05:13:57;;;;;;;16.30;2.40;;;11.90;99.90;;;;;;5030318;28;20512;-63
2022/10/30 05:16:25;;;;;;;24.38;3.15;;;11.90;99.90;;;;;;5030000;28;20045;-69
2022/10/30 05:18:54;;;;;;;23.25;1.80;;;11.90;99.90;;;;;;5027798;28;20049;-70
2022/10/30 05:21:21;;;;;;;15.13;1.83;;;11.90;99.90;;;;;;5030039;28;20045;-61
2022/10/30 05:23:49;;;;;;;18.15;2.83;;;12.00;99.90;;;;;;5030267;28;20050;-60
2022/10/30 05:26:18;;;;;;;33.97;2.28;;;11.90;99.90;;;;;;5030316;28;20048;-64
2022/10/30 05:28:46;;;;;;;19.15;3.58;;;11.90;99.90;;;;;;5030060;28;20061;-67
2022/10/30 05:31:14;;;;;;;26.83;2.80;;;12.00;99.90;;;;;;5031418;28;20052;-65
2022/10/30 05:34:11;;;;;;;17.00;3.65;;;12.00;99.90;;;;;;5030406;28;20064;-61
2022/10/30 05:36:39;;;;;;;15.85;3.55;;;12.00;99.90;;;;;;5030103;28;20424;-63
2022/10/30 05:39:08;;;;;;;17.05;2.05;;;11.90;99.90;;;;;;5029967;28;20045;-61
2022/10/30 05:41:39;;;;;;;24.55;2.97;;;12.00;99.90;;;;;;5029968;28;20045;-63
2022/10/30 05:44:08;;;;;;;22.83;3.13;;;11.90;99.90;;;;;;5013524;28;20497;-67
2022/10/30 05:46:39;;;;;;;12.40;1.60;;;12.00;99.90;;;;;;5029913;28;20048;-64
2022/10/30 05:49:23;;;;;;;21.15;1.90;;;12.00;99.90;;;;;;5020721;28;20049;-66
2022/10/30 05:51:51;;;;;;;19.00;2.30;;;12.00;99.90;;;;;;5017855;28;20389;-65
2022/10/30 05:54:19;;;;;;;26.67;2.75;;;12.00;99.90;;;;;;5022094;28;20509;-63
2022/10/30 05:57:16;;;;;;;18.90;2.65;;;12.00;99.90;;;;;;5010063;28;20056;-66
2022/10/30 05:59:45;;;;;;;23.05;2.58;;;;;;;;;;5026671;28;20034;-62
2022/10/30 06:02:13;;;;;;;26.13;2.53;;;11.90;99.90;;;;;;5017217;28;20052;-66
2022/10/30 06:04:41;;;;;;;12.70;1.67;;;11.90;99.90;;;;;;5003146;28;20498;-64
2022/10/30 06:07:12;;;;;;;21.33;2.05;;;11.90;99.90;;;;;;5005651;28;20061;-67
2022/10/30 06:09:40;;;;;;;18.20;1.98;;;11.90;99.90;;;;;;5026147;28;20381;-67
2022/10/30 06:12:37;;;;;;;18.25;2.22;;;11.80;99.90;;;;;;5026071;28;20053;-68
2022/10/30 06:15:18;;;;;;;19.23;2.42;;;11.90;99.90;;;;;;5021880;28;20049;-65
2022/10/30 06:17:46;;;;;;;25.40;1.88;;;11.90;99.90;;;;;;5008580;28;20057;-65
2022/10/30 06:20:16;;;;;;;23.20;2.33;;;11.80;99.90;;;;;;5006750;28;20512;-61
2022/10/30 06:22:55;;;;;;;28.65;3.30;;;11.80;99.90;;;;;;5028856;28;20037;-61
2022/10/30 06:25:26;;;;;;;23.98;4.28;;;11.80;99.90;;;;;;5030180;28;20042;-64
2022/10/30 06:28:12;;;;;;;18.85;2.80;;;11.80;99.90;;;;;;5029665;28;20049;-66
2022/10/30 06:30:41;;;;;;;24.20;4.40;;;11.80;99.90;;;;;;5029939;28;20041;-68
2022/10/30 06:33:10;;;;;;;41.10;4.50;;;11.80;99.90;;;;;;5028473;28;20042;-61
2022/10/30 06:35:43;;;;;;;21.63;1.98;;;11.80;99.90;;;;;;5027080;28;20522;-65
2022/10/30 06:38:11;;;;;;;25.35;3.83;;;11.80;99.90;;;;;;5026779;28;20042;-62
2022/10/30 06:40:39;;;;;;;18.38;2.25;;;11.80;99.90;;;;;;5027331;28;20481;-67
2022/10/30 06:43:25;;;;;;;21.80;3.72;;;11.80;99.90;;;;;;5029109;28;20042;-68
2022/10/30 06:45:59;;;;;;;20.02;4.15;;;11.80;99.90;;;;;;5029728;28;20420;-63
2022/10/30 06:48:27;;;;;;;20.08;2.97;;;11.70;99.90;;;;;;5025351;28;20489;-61
2022/10/30 06:51:01;;;;;;;28.30;2.40;;;11.90;99.90;;;;;;5012237;28;20405;-59
2022/10/30 06:53:32;;;;;;;20.88;2.33;;;11.90;99.90;;;;;;5028905;28;20056;-60
2022/10/30 06:56:35;;;;;;;20.58;2.45;;;11.90;99.90;;;;;;5029367;28;20038;-59
2022/10/30 06:59:23;;;;;;;17.73;2.20;;;12.00;99.90;;;;;;5029065;28;20068;-59
2022/10/30 07:01:55;;;;;;;22.10;1.80;;;12.00;99.90;;;;;;5030236;28;20504;-60
2022/10/30 07:04:38;;;;;;;20.27;2.80;;;12.10;99.90;;;;;;5023654;28;20049;-70
2022/10/30 07:07:07;;;;;;;21.50;3.00;;;12.10;99.90;;;;;;5010530;28;20049;-69
2022/10/30 07:09:34;;;;;;;23.90;2.55;;;12.20;99.90;;;;;;5028932;28;20045;-69
2022/10/30 07:12:02;;;;;;;19.90;2.13;;;12.20;99.90;;;;;;5011732;28;20054;-68
2022/10/30 07:14:39;;;;;;;15.95;1.75;;;12.20;99.90;;;;;;5029922;28;20053;-70
2022/10/30 07:17:28;;;;;;;19.73;2.00;;;12.30;99.90;;;;;;5028927;28;20327;-64
2022/10/30 07:20:00;;;;;;;20.45;2.38;;;12.30;99.90;;;;;;5025395;28;20050;-64
2022/10/30 07:22:29;;;;;;;17.05;3.55;;;12.20;99.90;;;;;;5020180;28;20398;-60
2022/10/30 07:24:56;;;;;;;24.67;3.08;;;12.30;99.90;;;;;;5028743;28;20041;-60
2022/10/30 07:27:54;;;;;;;21.83;3.33;;;12.30;99.90;;;;;;5027315;28;20049;-59
2022/10/30 07:30:40;;;;;;;11.00;1.83;;;12.30;99.90;;;;;;5028753;28;20060;-71
2022/10/30 07:33:27;;;;;;;13.65;1.67;;;12.30;99.90;;;;;;5022819;28;20046;-70
2022/10/30 07:36:14;;;;;;;15.60;2.10;;;12.30;99.90;;;;;;5008889;28;20378;-61
2022/10/30 07:38:47;;;;;;;24.98;3.35;;;12.30;99.90;;;;;;5007348;28;20041;-61
2022/10/30 07:41:50;;;;;;;17.20;3.88;;;12.40;99.90;;;;;;5026874;28;20401;-60
2022/10/30 07:44:56;;;;;;;18.60;2.03;;;12.50;99.90;;;;;;4987185;28;20057;-64
2022/10/30 07:47:45;;;;;;;20.58;2.75;;;12.50;99.90;;;;;;4971542;28;20050;-62
2022/10/30 07:50:20;;;;;;;18.73;3.15;;;12.50;99.90;;;;;;4996492;28;20054;-65
2022/10/30 07:52:49;;;;;;;16.05;2.05;;;12.50;99.90;;;;;;5025820;28;20050;-59
2022/10/30 07:55:22;;;;;;;24.80;3.72;;;12.50;99.90;;;;;;5029664;28;20045;-61
2022/10/30 07:57:50;;;;;;;19.50;2.30;;;12.60;99.90;;;;;;5029237;28;20658;-65
2022/10/30 08:00:18;;;;;;;18.67;2.10;;;12.60;99.90;;;;;;5029631;28;20045;-63
2022/10/30 08:02:56;;;;;;;15.93;2.47;;;12.60;99.90;;;;;;5024334;28;20508;-65
2022/10/30 08:05:46;;;;;;;18.13;2.42;;;12.60;99.90;;;;;;5015476;28;20540;-63
2022/10/30 08:08:20;;;;;;;11.45;2.35;;;12.60;99.90;;;;;;5018303;28;20520;-60
2022/10/30 08:10:58;;;;;;;20.75;3.13;;;12.60;99.90;;;;;;5028209;28;20049;-60
2022/10/30 08:13:26;;;;;;;18.08;1.98;;;12.60;99.90;;;;;;5026281;28;20054;-60
2022/10/30 08:15:53;;;;;;;18.75;2.53;;;12.60;99.90;;;;;;5015923;28;20382;-64
2022/10/30 08:18:21;;;;;;;20.38;3.15;;;12.60;99.90;;;;;;5025480;28;20034;-70
2022/10/30 08:20:49;;;;;;;24.67;2.92;;;12.70;99.90;;;;;;5026119;28;20476;-70
2022/10/30 08:23:20;;;;;;;14.70;3.60;;;12.60;99.90;;;;;;5027247;28;20389;-71
2022/10/30 08:25:48;;;;;;;17.17;2.15;;;12.70;99.90;;;;;;5027060;28;20053;-69
2022/10/30 08:28:16;;;;;;;12.48;1.83;;;12.70;99.90;;;;;;5027586;28;20053;-66
2022/10/30 08:30:44;;;;;;;27.95;3.85;;;12.70;99.90;;;;;;5016976;28;20409;-60
2022/10/30 08:33:15;;;;;;;19.20;1.85;;;12.70;99.90;;;;;;5012074;28;20045;-63
2022/10/30 08:35:58;;;;;;;25.00;2.85;;;12.70;99.90;;;;;;5008660;28;20042;-60
2022/10/30 08:38:27;;;;;;;15.43;2.60;;;12.70;99.90;;;;;;5023602;28;20080;-60
2022/10/30 08:41:08;;;;;;;24.48;3.38;;;12.80;99.90;;;;;;5021480;28;20347;-60
2022/10/30 08:43:43;;;;;;;13.25;2.60;;;;;;;;;;5018080;28;20049;-60
2022/10/30 08:46:11;;;;;;;19.38;2.85;;;12.80;99.90;;;;;;5009819;28;20053;-61
2022/10/30 08:48:38;;;;;;;15.75;2.53;;;12.80;99.90;;;;;;5013709;28;20038;-59
2022/10/30 08:51:06;;;;;;;19.65;2.40;;;12.90;99.90;;;;;;5007997;28;20050;-60
2022/10/30 08:53:40;;;;;;;15.50;2.30;;;12.90;99.90;;;;;;5010895;28;20045;-59
2022/10/30 08:56:12;;;;;;;18.08;2.33;;;12.90;99.90;;;;;;5015913;28;20041;-63
2022/10/30 08:58:55;;;;;;;23.27;2.35;;;13.00;99.90;;;;;;5011983;28;20045;-62
2022/10/30 09:01:23;;;;;;;17.38;2.17;;;13.00;99.90;;;;;;5004150;28;20528;-66
2022/10/30 09:04:10;;;;;;;15.85;2.40;;;13.00;99.90;;;;;;5015577;28;20072;-67
2022/10/30 09:07:00;;;;;;;16.98;1.92;;;13.10;99.90;;;;;;5020445;28;20056;-63
2022/10/30 09:09:30;;;;;;;19.35;2.53;;;13.10;99.90;;;;;;5005004;28;20061;-60
2022/10/30 09:12:02;;;;;;;16.60;3.70;;;13.10;99.90;;;;;;5005624;28;20425;-60
2022/10/30 09:14:35;;;;;;;14.73;2.40;;;13.20;99.90;;;;;;5016647;28;20038;-63
2022/10/30 09:17:03;;;;;;;20.50;2.25;;;13.30;99.90;;;;;;5005799;28;20042;-60
2022/10/30 09:19:31;;;;;;;12.18;1.77;;;13.30;99.90;;;;;;5004896;28;20042;-60
2022/10/30 09:21:59;;;;;;;14.20;1.95;;;13.30;99.90;;;;;;5013461;28;20064;-59
2022/10/30 09:24:27;;;;;;;23.45;2.47;;;13.30;99.90;;;;;;5025623;28;20034;-62
2022/10/30 09:26:55;;;;;;;20.88;2.35;;;13.40;99.90;;;;;;5003953;28;20038;-63
2022/10/30 09:29:25;;;;;;;19.60;3.40;;;13.40;99.90;;;;;;5011673;28;20048;-63
2022/10/30 09:32:08;;;;;;;18.92;2.75;;;13.50;99.90;;;;;;5004546;28;20045;-61
2022/10/30 09:34:59;;;;;;;20.15;2.03;;;13.50;99.90;;;;;;5007090;28;20066;-60
2022/10/30 09:37:37;;;;;;;23.02;3.13;;;13.60;99.90;;;;;;5002195;28;20057;-61
2022/10/30 09:40:41;;;;;;;21.27;2.72;;;13.60;99.90;;;;;;5022254;28;20497;-61
2022/10/30 09:43:18;;;;;;;11.52;1.80;;;13.60;99.90;;;;;;5019108;28;20037;-63
2022/10/30 09:46:08;;;;;;;13.95;1.77;;;13.70;99.90;;;;;;5017246;28;20058;-61
2022/10/30 09:48:39;;;;;;;19.40;4.00;;;13.70;99.90;;;;;;5006959;28;20374;-62
2022/10/30 09:51:19;;;;;;;14.35;1.90;;;13.70;99.90;;;;;;5013595;28;20504;-62
2022/10/30 09:53:57;;;;;;;19.08;2.08;;;13.70;99.90;;;;;;5010266;28;20065;-61
2022/10/30 09:56:52;;;;;;;19.17;3.03;;;13.80;99.90;;;;;;5020238;28;20358;-60
2022/10/30 09:59:30;;;;;;;17.60;2.78;;;13.80;99.90;;;;;;5030584;28;20393;-61
2022/10/30 10:02:33;;;;;;;12.23;2.50;;;13.80;99.90;;;;;;5016103;28;20049;-61
2022/10/30 10:05:25;;;;;;;15.35;1.65;;;13.90;99.90;;;;;;5019600;28;20053;-71
2022/10/30 10:08:33;;;;;;;17.85;2.22;;;14.00;99.90;;;;;;5023605;28;20481;-71
2022/10/30 10:11:28;;;;;;;15.05;4.22;;;13.90;99.90;;;;;;5018516;28;20105;-64
2022/10/30 10:14:12;;;;;;;11.23;1.65;;;14.00;99.90;;;;;;5023055;28;20045;-68
2022/10/30 10:16:42;;;;;;;17.67;2.65;;;14.00;99.90;;;;;;5012555;28;20064;-62
2022/10/30 10:19:20;;;;;;;13.10;2.10;;;14.10;99.90;;;;;;5024045;28;20046;-63
2022/10/30 10:21:55;;;;;;;16.50;2.03;;;14.10;99.90;;;;;;5022275;28;20404;-67
2022/10/30 10:24:31;;;;;;;27.88;2.60;;;14.20;99.90;;;;;;5023379;28;20053;-62
2022/10/30 10:27:05;;;;;;;14.45;2.65;;;14.20;99.90;;;;;;5010352;28;20042;-64
2022/10/30 10:29:51;;;;;;;23.33;2.70;;;14.20;99.90;;;;;;5010733;28;20050;-63
2022/10/30 10:32:34;;;;;;;14.82;2.08;;;14.10;99.90;;;;;;5012181;28;20042;-62
2022/10/30 10:35:22;;;;;;;14.68;1.70;;;14.10;99.90;;;;;;5023817;28;20049;-66
2022/10/30 10:37:55;;;;;;;17.48;2.95;;;14.20;99.90;;;;;;5026215;28;20046;-64
2022/10/30 10:40:29;;;;;;;12.32;2.05;;;14.30;99.90;;;;;;5030927;28;20049;-67
2022/10/30 10:43:24;;;;;;;15.98;2.90;;;14.30;99.90;;;;;;5024265;28;20054;-70
2022/10/30 10:46:13;;;;;;;16.33;1.73;;;14.40;99.90;;;;;;5009861;28;21108;-68
2022/10/30 10:48:51;;;;;;;17.65;1.92;;;14.50;99.90;;;;;;5010474;28;20045;-61
2022/10/30 10:51:41;;;;;;;14.52;3.08;;;14.70;99.90;;;;;;5019564;28;20050;-62
2022/10/30 10:54:38;;;;;;;19.42;2.25;;;15.00;99.90;;;;;;5027730;28;20053;-63
2022/10/30 10:57:11;;;;;;;13.90;2.17;;;15.30;99.90;;;;;;5015986;28;20417;-61
2022/10/30 10:59:44;;;;;;;11.07;1.42;;;15.50;99.90;;;;;;5013339;28;20100;-60
2022/10/30 11:02:41;;;;;;;17.70;2.50;;;15.70;99.90;;;;;;5012208;28;20397;-63
2022/10/30 11:05:38;;;;;;;22.58;3.60;;;15.90;99.90;;;;;;5023029;28;20528;-60
2022/10/30 11:08:16;;;;;;;11.30;1.92;;;15.90;99.90;;;;;;5016498;28;20262;-66
2022/10/30 11:10:48;;;;;;;18.92;2.00;;;15.90;99.90;;;;;;5010385;28;20050;-66
2022/10/30 11:13:15;;;;;;;16.30;2.50;;;15.90;99.90;;;;;;5020821;28;20409;-68
2022/10/30 11:16:18;;;;;;;14.48;2.20;;;16.00;99.90;;;;;;5010792;28;20375;-64
2022/10/30 11:18:47;;;;;;;14.02;2.65;;;16.10;99.90;;;;;;5018772;28;20053;-62
2022/10/30 11:21:20;;;;;;;17.42;1.90;;;16.30;99.90;;;;;;5014412;28;20061;-60
2022/10/30 11:23:49;;;;;;;13.05;1.98;;;16.70;99.90;;;;;;5023409;28;20037;-70
2022/10/30 11:26:16;;;;;;;16.50;3.25;;;16.70;99.90;;;;;;5009063;28;20058;-61
2022/10/30 11:28:44;;;;;;;12.20;1.77;;;17.00;99.90;;;;;;5023746;28;20389;-62
2022/10/30 11:31:36;;;;;;;17.23;2.83;;;17.20;99.90;;;;;;5022060;28;20046;-69
2022/10/30 11:34:15;;;;;;;14.27;1.95;;;17.50;99.90;;;;;;5019727;28;20050;-63
2022/10/30 11:36:54;;;;;;;13.77;2.67;;;17.60;99.90;;;;;;5017290;28;20045;-67
2022/10/30 11:39:27;;;;;;;9.80;1.40;;;17.80;99.90;;;;;;5013598;28;20045;-63
2022/10/30 11:41:57;;;;;;;14.48;2.38;;;18.00;99.90;;;;;;5007553;28;20058;-65
2022/10/30 11:44:40;;;;;;;9.85;1.85;;;18.10;99.90;;;;;;5007911;28;20046;-62
2022/10/30 11:47:09;;;;;;;9.15;1.52;;;17.80;99.90;;;;;;5013684;28;20413;-60
2022/10/30 11:50:13;;;;;;;12.45;1.13;;;17.40;99.90;;;;;;5007138;28;20046;-70
2022/10/30 11:52:43;;;;;;;16.60;2.28;;;17.00;99.90;;;;;;5016136;28;20497;-60
2022/10/30 11:55:16;;;;;;;9.40;1.35;;;16.70;99.90;;;;;;5009094;28;20402;-64
2022/10/30 11:57:53;;;;;;;12.02;1.10;;;16.40;99.90;;;;;;5013729;28;20481;-61
2022/10/30 12:00:30;;;;;;;15.15;1.77;;;16.20;99.90;;;;;;5013261;28;20053;-62
2022/10/30 12:03:05;;;;;;;12.13;1.90;;;16.00;99.90;;;;;;5013226;28;20486;-64
2022/10/30 12:05:34;;;;;;;10.38;2.15;;;15.80;99.90;;;;;;5011900;28;20050;-60
2022/10/30 12:08:08;;;;;;;11.48;2.10;;;15.30;99.90;;;;;;5008428;28;20061;-59
2022/10/30 12:10:44;;;;;;;7.82;1.23;;;15.30;99.90;;;;;;5008300;28;20041;-62
2022/10/30 12:13:14;;;;;;;6.70;1.20;;;15.00;99.90;;;;;;5008502;28;20507;-62
2022/10/30 12:15:45;;;;;;;13.02;1.33;;;14.80;99.90;;;;;;5022524;28;20050;-61
2022/10/30 12:18:20;;;;;;;8.93;0.80;;;14.60;99.90;;;;;;5007938;28;20042;-61
2022/10/30 12:20:55;;;;;;;5.28;1.00;;;14.30;99.90;;;;;;5005560;28;20065;-62
2022/10/30 12:23:25;;;;;;;7.18;1.17;;;14.10;99.90;;;;;;5006964;28;20050;-61
2022/10/30 12:26:08;;;;;;;;;;;13.70;99.90;;;;;;5017007;28;20041;-63
2022/10/30 12:28:37;;;;;;;2.85;0.30;;;13.30;99.90;;;;;;5021136;28;19932;-63
2022/10/30 12:31:07;;;;;;;4.78;0.40;;;13.10;99.90;;;;;;5011787;28;20053;-61
2022/10/30 12:34:14;;;;;;;6.68;2.30;;;13.10;99.90;;;;;;5016736;28;20038;-69
2022/10/30 12:36:53;;;;;;;8.60;3.63;;;13.00;99.90;;;;;;5012527;28;20057;-68
2022/10/30 12:39:29;;;;;;;4.70;1.05;;;12.90;99.90;;;;;;5021226;28;20069;-68
2022/10/30 12:42:07;;;;;;;3.55;0.77;;;12.80;99.90;;;;;;5016364;28;20053;-69
2022/10/30 12:44:42;;;;;;;8.45;1.13;;;12.80;99.90;;;;;;5021682;28;20041;-64
2022/10/30 12:47:16;;;;;;;2.38;0.82;;;12.70;99.90;;;;;;5022874;28;20057;-69
2022/10/30 12:49:49;;;;;;;5.07;0.50;;;12.70;99.90;;;;;;5013740;28;20042;-68
2022/10/30 12:52:23;;;;;;;3.42;0.70;;;12.60;99.90;;;;;;5012639;28;20045;-61
2022/10/30 12:55:08;;;;;;;6.75;0.88;;;12.60;99.90;;;;;;5008270;28;20497;-63
2022/10/30 12:57:43;;;;;;;5.40;0.85;;;12.60;99.90;;;;;;5011849;28;20060;-66
2022/10/30 13:00:17;;;;;;;6.05;0.98;;;12.60;99.90;;;;;;5011122;28;20042;-65
2022/10/30 13:03:33;;;;;;;3.10;0.60;;;12.60;99.90;;;;;;5012195;28;20049;-63
2022/10/30 13:06:15;;;;;;;6.22;1.02;;;12.60;99.90;;;;;;5000040;28;20057;-64
2022/10/30 13:09:12;;;;;;;6.93;0.88;;;12.60;99.90;;;;;;5011807;28;20061;-63
2022/10/30 13:11:52;;;;;;;5.30;0.85;;;12.70;99.90;;;;;;5013103;28;20485;-63
2022/10/30 13:14:28;;;;;;;4.53;1.58;;;12.70;99.90;;;;;;5010406;28;20060;-63
2022/10/30 13:16:57;;;;;;;8.10;0.93;;;12.70;99.90;;;;;;5020546;28;20046;-68
2022/10/30 13:19:26;;;;;;;3.85;0.77;;;12.70;99.90;;;;;;5012543;28;20038;-64